Time;durP1;ratioP1;P1;durP2;ratioP2;P2;SDS_P1;SDS_P2;PMS_P1;PMS_P2;Temp;Humidity;BMP_temperature;BMP_pressure;BME280_temperature;BME280_humidity;BME280_pressure;Samples;Min_cycle;Max_cycle;Signal;HPM_P1;HPM_P2
2023/07/13 00:01:49;;;;;;;;;;;18.70;63.60;;;;;;4964879;28;19929;-84
2023/07/13 00:04:19;;;;;;;;;;;18.70;63.60;;;;;;4976381;28;19914;-83
2023/07/13 00:06:45;;;;;;;;;;;18.70;63.90;;;;;;4971584;28;19915;-84
2023/07/13 00:09:14;;;;;;;;;;;18.70;63.70;;;;;;4996151;28;19921;-84
2023/07/13 00:11:40;;;;;;;;;;;18.80;63.70;;;;;;4997081;28;19915;-84
2023/07/13 00:14:05;;;;;;;;;;;18.70;64.40;;;;;;4965374;28;19973;-84
2023/07/13 00:16:31;;;;;;;;;;;18.70;64.90;;;;;;4991757;28;19939;-84
2023/07/13 00:18:56;;;;;;;;;;;18.70;63.60;;;;;;5005479;28;20005;-85
2023/07/13 00:21:22;;;;;;;;;;;18.70;63.50;;;;;;4971714;28;19959;-84
2023/07/13 00:23:48;;;;;;;;;;;18.70;63.20;;;;;;4987963;28;19917;-84
2023/07/13 00:26:14;;;;;;;;;;;18.60;64.40;;;;;;4970944;28;19953;-84
2023/07/13 00:28:39;;;;;;;;;;;18.50;64.90;;;;;;4969058;28;19922;-84
2023/07/13 00:31:05;;;;;;;;;;;18.50;65.30;;;;;;4995538;28;19936;-84
2023/07/13 00:33:31;;;;;;;;;;;18.40;65.60;;;;;;4962844;28;19911;-84
2023/07/13 00:35:56;;;;;;;;;;;18.30;66.70;;;;;;4975974;28;19925;-84
2023/07/13 00:38:22;;;;;;;;;;;18.20;66.30;;;;;;4990035;28;19914;-83
2023/07/13 00:40:48;;;;;;;;;;;18.20;66.80;;;;;;4985377;28;19913;-84
2023/07/13 00:43:15;;;;;;;;;;;18.20;65.60;;;;;;4990958;28;19919;-84
2023/07/13 00:45:43;;;;;;;;;;;18.30;64.60;;;;;;4959310;28;20294;-84
2023/07/13 00:48:20;;;;;;;;;;;18.30;65.60;;;;;;4970342;28;19920;-84
2023/07/13 00:50:47;;;;;;;;;;;18.20;64.70;;;;;;4966994;28;19964;-84
2023/07/13 00:53:14;;;;;;;;;;;18.20;64.20;;;;;;4966790;28;19929;-84
2023/07/13 00:55:40;;;;;;;;;;;18.20;64.90;;;;;;4973002;28;19918;-84
2023/07/13 00:58:19;;;;;;;;;;;18.10;65.00;;;;;;4983564;28;19963;-84
2023/07/13 01:00:53;;;;;;;;;;;18.10;65.90;;;;;;4983802;28;20398;-85
2023/07/13 01:03:21;;;;;;;;;;;18.10;64.20;;;;;;4979052;28;19980;-85
2023/07/13 01:05:49;;;;;;;;;;;18.00;63.80;;;;;;4974659;28;20393;-86
2023/07/13 01:08:14;;;;;;;;;;;18.00;65.20;;;;;;4968781;28;19959;-86
2023/07/13 01:10:40;;;;;;;;;;;18.00;66.10;;;;;;4977092;28;19977;-85
2023/07/13 01:13:06;;;;;;;;;;;18.00;64.20;;;;;;4988013;28;19932;-85
2023/07/13 01:15:42;;;;;;;;;;;18.00;63.70;;;;;;4998529;28;20447;-85
2023/07/13 01:18:12;;;;;;;;;;;17.90;63.80;;;;;;4969266;28;19910;-85
2023/07/13 01:20:57;;;;;;;;;;;17.90;64.20;;;;;;4968485;28;20024;-85
2023/07/13 01:23:24;;;;;;;;;;;17.90;63.80;;;;;;4970813;28;19991;-85
2023/07/13 01:25:50;;;;;;;;;;;17.90;64.00;;;;;;5021061;28;19922;-85
2023/07/13 01:28:16;;;;;;;;;;;17.80;64.30;;;;;;5045172;28;19918;-85
2023/07/13 01:30:45;;;;;;;;;;;17.80;64.80;;;;;;4954021;28;20386;-85
2023/07/13 01:33:12;;;;;;;;;;;17.70;65.20;;;;;;4957979;28;19973;-85
2023/07/13 01:35:40;;;;;;;;;;;17.80;65.90;;;;;;4970945;28;19933;-85
2023/07/13 01:38:05;;;;;;;;;;;17.70;65.10;;;;;;4977497;28;19914;-84
2023/07/13 01:40:31;;;;;;;;;;;17.70;65.20;;;;;;4978084;28;20282;-84
2023/07/13 01:43:01;;;;;;;;;;;17.70;65.60;;;;;;4991506;28;19906;-84
2023/07/13 01:45:26;;;;;;;;;;;17.70;65.90;;;;;;4977620;28;19910;-84
2023/07/13 01:47:52;;;;;;;;;;;17.70;65.70;;;;;;4983676;28;20386;-85
2023/07/13 01:50:17;;;;;;;;;;;17.60;66.50;;;;;;4961882;28;19911;-85
2023/07/13 01:52:43;;;;;;;;;;;17.60;66.50;;;;;;4975581;28;19956;-85
2023/07/13 01:55:08;;;;;;;;;;;17.60;67.20;;;;;;4976135;28;19925;-84
2023/07/13 01:57:34;;;;;;;;;;;17.50;67.30;;;;;;4975243;28;19922;-85
2023/07/13 02:00:00;;;;;;;;;;;17.40;67.80;;;;;;4977115;28;19925;-85
2023/07/13 02:02:26;;;;;;;;;;;17.50;66.30;;;;;;4975287;28;20345;-85
2023/07/13 02:04:51;;;;;;;;;;;17.50;66.60;;;;;;4975775;28;20102;-85
2023/07/13 02:07:17;;;;;;;;;;;17.40;65.80;;;;;;4958649;28;20314;-84
2023/07/13 02:09:42;;;;;;;;;;;17.50;66.10;;;;;;4960135;28;20306;-85
2023/07/13 02:12:08;;;;;;;;;;;17.50;65.30;;;;;;4961931;28;19910;-84
2023/07/13 02:14:33;;;;;;;;;;;17.50;65.50;;;;;;4977467;28;20020;-85
2023/07/13 02:16:59;;;;;;;;;;;17.50;65.40;;;;;;4975734;28;20283;-84
2023/07/13 02:19:24;;;;;;;;;;;17.40;65.40;;;;;;4960103;28;19910;-85
2023/07/13 02:21:50;;;;;;;;;;;17.30;66.00;;;;;;4976044;28;19910;-84
2023/07/13 02:24:17;;;;;;;;;;;17.30;67.00;;;;;;4972142;28;20504;-84
2023/07/13 02:26:43;;;;;;;;;;;17.30;66.60;;;;;;4974859;28;19964;-84
2023/07/13 02:29:08;;;;;;;;;;;17.30;66.50;;;;;;4973227;28;19922;-84
2023/07/13 02:31:35;;;;;;;;;;;17.30;66.30;;;;;;4955275;28;19915;-84
2023/07/13 02:34:01;;;;;;;;;;;17.20;67.00;;;;;;4973280;28;19934;-84
2023/07/13 02:36:27;;;;;;;;;;;17.20;67.70;;;;;;4951684;28;19914;-84
2023/07/13 02:38:52;;;;;;;;;;;17.10;67.60;;;;;;4956800;28;20302;-84
2023/07/13 02:41:18;;;;;;;;;;;17.10;67.70;;;;;;4956310;28;19950;-84
2023/07/13 02:43:43;;;;;;;;;;;17.20;67.90;;;;;;4974016;28;19918;-84
2023/07/13 02:46:09;;;;;;;;;;;17.20;68.10;;;;;;4955266;28;19975;-84
2023/07/13 02:48:34;;;;;;;;;;;17.10;66.90;;;;;;4974140;28;20008;-84
2023/07/13 02:51:00;;;;;;;;;;;17.10;67.20;;;;;;4955623;28;19929;-84
2023/07/13 02:53:26;;;;;;;;;;;17.10;67.20;;;;;;4989627;28;20371;-84
2023/07/13 02:55:52;;;;;;;;;;;17.20;66.80;;;;;;4956953;28;19960;-84
2023/07/13 02:58:18;;;;;;;;;;;17.10;66.60;;;;;;4955819;28;20333;-84
2023/07/13 03:00:43;;;;;;;;;;;17.10;66.70;;;;;;4956530;28;20337;-84
2023/07/13 03:03:09;;;;;;;;;;;17.10;67.10;;;;;;4972395;28;20330;-84
2023/07/13 03:05:37;;;;;;;;;;;17.00;68.30;;;;;;4956044;28;19910;-84
2023/07/13 03:08:03;;;;;;;;;;;17.00;68.90;;;;;;4969795;28;19925;-84
2023/07/13 03:10:29;;;;;;;;;;;17.00;69.30;;;;;;4965312;28;19910;-84
2023/07/13 03:12:54;;;;;;;;;;;17.00;69.90;;;;;;4992161;28;19965;-84
2023/07/13 03:15:20;;;;;;;;;;;17.00;68.70;;;;;;4993751;28;19911;-84
2023/07/13 03:17:45;;;;;;;;;;;17.00;68.80;;;;;;4961822;28;19997;-84
2023/07/13 03:20:11;;;;;;;;;;;17.00;69.10;;;;;;4959090;28;19936;-85
2023/07/13 03:22:37;;;;;;;;;;;17.00;68.50;;;;;;4971892;28;20000;-84
2023/07/13 03:25:02;;;;;;;;;;;16.90;68.80;;;;;;4976316;28;19915;-85
2023/07/13 03:27:28;;;;;;;;;;;17.00;67.10;;;;;;4958481;28;20391;-85
2023/07/13 03:29:53;;;;;;;;;;;17.00;67.30;;;;;;4976834;28;19969;-85
2023/07/13 03:32:19;;;;;;;;;;;16.90;67.60;;;;;;4959658;28;19914;-85
2023/07/13 03:34:44;;;;;;;;;;;16.90;67.80;;;;;;4958653;28;19925;-85
2023/07/13 03:37:09;;;;;;;;;;;16.90;67.90;;;;;;4958256;28;20001;-85
2023/07/13 03:39:35;;;;;;;;;;;16.90;67.90;;;;;;4979642;28;20820;-85
2023/07/13 03:42:00;;;;;;;;;;;16.80;68.10;;;;;;4986050;28;19934;-84
2023/07/13 03:44:26;;;;;;;;;;;16.80;68.20;;;;;;4964160;28;19914;-85
2023/07/13 03:46:51;;;;;;;;;;;16.80;69.10;;;;;;4960399;28;19911;-84
2023/07/13 03:49:17;;;;;;;;;;;16.80;68.80;;;;;;4959604;28;19914;-84
2023/07/13 03:51:42;;;;;;;;;;;16.70;68.90;;;;;;4974757;28;19918;-84
2023/07/13 03:54:08;;;;;;;;;;;16.70;68.70;;;;;;4974866;28;19910;-85
2023/07/13 03:56:33;;;;;;;;;;;16.70;68.60;;;;;;4958433;28;19922;-84
2023/07/13 03:58:59;;;;;;;;;;;16.70;69.00;;;;;;4957102;28;19914;-85
2023/07/13 04:01:25;;;;;;;;;;;16.60;69.10;;;;;;4957778;28;19910;-84
2023/07/13 04:03:51;;;;;;;;;;;16.60;69.20;;;;;;4973225;28;19918;-83
2023/07/13 04:06:27;;;;;;;;;;;16.70;69.10;;;;;;4981225;28;19909;-85
2023/07/13 04:08:54;;;;;;;;;;;16.70;69.20;;;;;;4975675;28;19916;-84
2023/07/13 04:11:20;;;;;;;;;;;16.60;69.50;;;;;;4970696;28;19914;-84
2023/07/13 04:13:46;;;;;;;;;;;16.60;69.60;;;;;;4976022;28;20432;-85
2023/07/13 04:16:12;;;;;;;;;;;16.70;69.60;;;;;;4958231;28;19918;-85
2023/07/13 04:18:38;;;;;;;;;;;16.60;69.50;;;;;;4972367;28;19929;-84
2023/07/13 04:21:03;;;;;;;;;;;16.60;69.90;;;;;;4955807;28;19915;-85
2023/07/13 04:23:29;;;;;;;;;;;16.60;69.90;;;;;;4974551;28;19937;-84
2023/07/13 04:25:54;;;;;;;;;;;16.70;69.80;;;;;;4972488;28;19917;-84
2023/07/13 04:28:21;;;;;;;;;;;16.70;69.60;;;;;;4972563;28;19914;-84
2023/07/13 04:30:47;;;;;;;;;;;16.80;70.00;;;;;;4972718;28;20307;-84
2023/07/13 04:33:12;;;;;;;;;;;16.70;70.10;;;;;;4971191;28;19921;-84
2023/07/13 04:35:38;;;;;;;;;;;16.80;70.30;;;;;;4952607;28;19988;-84
2023/07/13 04:38:03;;;;;;;;;;;16.90;69.90;;;;;;4962946;28;19918;-84
2023/07/13 04:40:29;;;;;;;;;;;16.90;69.90;;;;;;4988704;28;20054;-85
2023/07/13 04:42:55;;;;;;;;;;;16.90;69.90;;;;;;4958323;28;20501;-85
2023/07/13 04:45:20;;;;;;;;;;;16.90;70.20;;;;;;4967524;28;19909;-85
2023/07/13 04:47:46;;;;;;;;;;;16.90;70.50;;;;;;4996615;28;19906;-84
2023/07/13 04:50:15;;;;;;;;;;;16.90;70.20;;;;;;4988618;28;19914;-85
2023/07/13 04:52:40;;;;;;;;;;;16.80;71.00;;;;;;4976477;28;20366;-84
2023/07/13 04:55:06;;;;;;;;;;;16.90;70.50;;;;;;4975495;28;19926;-84
2023/07/13 04:57:32;;;;;;;;;;;17.00;70.30;;;;;;4977519;28;19918;-84
2023/07/13 05:00:00;;;;;;;;;;;17.00;70.40;;;;;;4976105;28;19915;-85
2023/07/13 05:02:28;;;;;;;;;;;17.10;70.40;;;;;;4978174;28;20044;-85
2023/07/13 05:04:53;;;;;;;;;;;17.10;70.70;;;;;;4960232;28;19910;-85
2023/07/13 05:07:18;;;;;;;;;;;17.10;70.50;;;;;;4960182;28;19918;-84
2023/07/13 05:09:44;;;;;;;;;;;17.10;70.50;;;;;;4975094;28;19914;-84
2023/07/13 05:12:10;;;;;;;;;;;17.20;70.60;;;;;;4957626;28;19961;-84
2023/07/13 05:14:35;;;;;;;;;;;17.20;70.50;;;;;;4979193;28;19940;-85
2023/07/13 05:17:01;;;;;;;;;;;17.10;71.20;;;;;;4979622;28;19971;-85
2023/07/13 05:19:26;;;;;;;;;;;17.20;70.60;;;;;;4960273;28;20363;-84
2023/07/13 05:21:51;;;;;;;;;;;17.30;70.80;;;;;;4977414;28;20013;-85
2023/07/13 05:24:17;;;;;;;;;;;17.30;70.40;;;;;;4959977;28;19937;-85
2023/07/13 05:26:42;;;;;;;;;;;17.50;70.40;;;;;;4978508;28;19932;-85
2023/07/13 05:29:08;;;;;;;;;;;17.60;69.90;;;;;;4960076;28;19918;-85
2023/07/13 05:31:33;;;;;;;;;;;17.70;69.40;;;;;;4960652;28;19925;-85
2023/07/13 05:33:59;;;;;;;;;;;17.80;69.20;;;;;;4959093;28;19942;-85
2023/07/13 05:36:24;;;;;;;;;;;17.70;69.50;;;;;;4974434;28;19925;-85
2023/07/13 05:38:49;;;;;;;;;;;17.70;69.50;;;;;;4976679;28;19921;-84
2023/07/13 05:41:15;;;;;;;;;;;17.70;69.80;;;;;;4961054;28;19914;-85
2023/07/13 05:43:42;;;;;;;;;;;17.70;69.80;;;;;;5021772;22;19926;-88
2023/07/13 05:46:07;;;;;;;;;;;17.80;69.50;;;;;;4995083;28;19948;-88
2023/07/13 05:48:33;;;;;;;;;;;17.90;69.40;;;;;;4998595;28;19918;-88
2023/07/13 05:50:58;;;;;;;;;;;17.80;69.60;;;;;;5005725;28;19957;-88
2023/07/13 05:53:24;;;;;;;;;;;17.90;69.80;;;;;;4999592;28;20294;-88
2023/07/13 05:55:53;;;;;;;;;;;17.80;70.00;;;;;;4974809;28;20017;-88
2023/07/13 05:58:18;;;;;;;;;;;17.90;69.80;;;;;;4991719;28;19909;-87
2023/07/13 06:00:44;;;;;;;;;;;17.80;70.30;;;;;;4974055;28;19936;-86
2023/07/13 06:03:09;;;;;;;;;;;18.00;70.20;;;;;;4965899;28;19949;-85
2023/07/13 06:05:35;;;;;;;;;;;18.00;69.90;;;;;;4971438;28;19922;-86
2023/07/13 06:08:01;;;;;;;;;;;18.00;69.80;;;;;;4987999;28;19924;-87
2023/07/13 06:10:26;;;;;;;;;;;18.00;69.90;;;;;;4988770;28;20020;-88
2023/07/13 06:12:52;;;;;;;;;;;18.00;70.00;;;;;;4981214;28;19914;-86
2023/07/13 06:15:17;;;;;;;;;;;18.00;70.40;;;;;;4976666;28;19971;-86
2023/07/13 06:17:43;;;;;;;;;;;17.90;70.50;;;;;;4974887;28;19910;-87
2023/07/13 06:20:09;;;;;;;;;;;17.90;70.70;;;;;;4973151;28;19914;-86
2023/07/13 06:22:34;;;;;;;;;;;18.00;70.70;;;;;;4974377;28;19918;-86
2023/07/13 06:25:00;;;;;;;;;;;18.10;70.50;;;;;;4985374;28;19920;-86
2023/07/13 06:27:25;;;;;;;;;;;18.10;70.60;;;;;;4973569;28;19910;-87
2023/07/13 06:29:51;;;;;;;;;;;18.10;70.50;;;;;;4973718;28;19917;-86
2023/07/13 06:32:16;;;;;;;;;;;18.30;70.60;;;;;;4974879;28;19914;-85
2023/07/13 06:34:41;;;;;;;;;;;18.40;69.60;;;;;;4970209;28;20085;-86
2023/07/13 06:37:07;;;;;;;;;;;18.30;70.00;;;;;;4968048;28;19918;-86
2023/07/13 06:39:32;;;;;;;;;;;18.20;70.10;;;;;;4972012;28;19910;-86
2023/07/13 06:41:58;;;;;;;;;;;18.20;70.50;;;;;;4975062;28;20342;-87
2023/07/13 06:44:23;;;;;;;;;;;18.10;70.80;;;;;;4972468;28;19913;-87
2023/07/13 06:46:49;;;;;;;;;;;18.10;70.70;;;;;;4972987;28;19920;-87
2023/07/13 06:49:14;;;;;;;;;;;18.20;71.00;;;;;;4973090;28;20119;-87
2023/07/13 06:51:40;;;;;;;;;;;18.20;71.00;;;;;;4973909;28;19921;-86
2023/07/13 06:54:05;;;;;;;;;;;18.30;71.00;;;;;;4969488;28;19956;-87
2023/07/13 06:56:31;;;;;;;;;;;18.40;70.70;;;;;;4972044;28;19921;-87
2023/07/13 06:58:56;;;;;;;;;;;18.50;70.50;;;;;;4971758;28;20305;-87
2023/07/13 07:01:22;;;;;;;;;;;18.60;70.10;;;;;;4974477;28;19924;-86
2023/07/13 07:03:47;;;;;;;;;;;18.60;70.60;;;;;;4969996;28;20293;-87
2023/07/13 07:06:17;;;;;;;;;;;18.70;69.60;;;;;;4970866;28;20292;-87
2023/07/13 07:08:43;;;;;;;;;;;18.80;69.60;;;;;;4972741;28;19917;-86
2023/07/13 07:11:09;;;;;;;;;;;18.70;69.50;;;;;;4968893;28;19918;-87
2023/07/13 07:13:35;;;;;;;;;;;18.80;70.10;;;;;;4987133;28;19917;-87
2023/07/13 07:16:00;;;;;;;;;;;18.80;69.50;;;;;;4970514;28;19925;-86
2023/07/13 07:18:26;;;;;;;;;;;18.80;69.20;;;;;;4971682;28;19921;-87
2023/07/13 07:20:51;;;;;;;;;;;18.80;69.40;;;;;;4971371;28;20377;-85
2023/07/13 07:23:17;;;;;;;;;;;18.70;69.20;;;;;;4967823;28;20293;-87
2023/07/13 07:25:43;;;;;;;;;;;18.70;69.60;;;;;;4971058;28;19917;-86
2023/07/13 07:28:09;;;;;;;;;;;18.70;69.80;;;;;;4965794;28;19914;-86
2023/07/13 07:30:35;;;;;;;;;;;18.80;69.20;;;;;;4968459;28;19920;-87
2023/07/13 07:33:01;;;;;;;;;;;18.80;69.40;;;;;;4982945;28;19914;-89
2023/07/13 07:35:26;;;;;;;;;;;19.00;69.50;;;;;;4973973;28;20370;-89
2023/07/13 07:37:52;;;;;;;;;;;19.10;68.70;;;;;;4970298;28;19967;-86
2023/07/13 07:40:18;;;;;;;;;;;19.10;68.20;;;;;;4985681;28;19933;-87
2023/07/13 07:42:43;;;;;;;;;;;19.30;67.90;;;;;;4970656;28;19928;-88
2023/07/13 07:45:11;;;;;;;;;;;19.30;67.70;;;;;;4972243;28;19989;-86
2023/07/13 07:47:36;;;;;;;;;;;19.40;67.00;;;;;;4994715;28;20382;-87
2023/07/13 07:50:02;;;;;;;;;;;19.50;67.30;;;;;;4969394;28;20017;-87
2023/07/13 07:52:27;;;;;;;;;;;19.40;66.90;;;;;;4969286;28;20290;-88
2023/07/13 07:54:53;;;;;;;;;;;19.40;66.90;;;;;;4970408;28;19917;-86
2023/07/13 07:57:18;;;;;;;;;;;19.50;67.10;;;;;;4968724;28;20458;-88
2023/07/13 07:59:44;;;;;;;;;;;19.50;65.90;;;;;;4966793;28;19933;-87
2023/07/13 08:02:10;;;;;;;;;;;19.50;66.30;;;;;;4969447;28;19917;-88
2023/07/13 08:04:35;;;;;;;;;;;19.60;66.10;;;;;;4971710;28;19910;-88
2023/07/13 08:07:02;;;;;;;;;;;19.60;65.50;;;;;;4970180;28;19994;-88
2023/07/13 08:09:28;;;;;;;;;;;19.60;65.60;;;;;;4994761;28;19918;-88
2023/07/13 08:11:54;;;;;;;;;;;19.80;65.40;;;;;;4982405;28;19924;-88
2023/07/13 08:14:20;;;;;;;;;;;19.90;65.10;;;;;;4984943;28;19963;-88
2023/07/13 08:16:46;;;;;;;;;;;19.90;64.60;;;;;;4973641;28;19976;-88
2023/07/13 08:19:12;;;;;;;;;;;19.90;65.00;;;;;;4972181;28;20323;-88
2023/07/13 08:21:37;;;;;;;;;;;19.90;65.20;;;;;;4972019;28;20362;-89
2023/07/13 08:24:03;;;;;;;;;;;19.80;65.20;;;;;;4970660;28;19954;-89
2023/07/13 08:26:28;;;;;;;;;;;19.90;65.30;;;;;;4972476;28;19986;-89
2023/07/13 08:28:53;;;;;;;;;;;19.90;65.80;;;;;;4971791;28;19913;-88
2023/07/13 08:31:19;;;;;;;;;;;19.80;65.40;;;;;;4972462;28;20030;-88
2023/07/13 08:33:45;;;;;;;;;;;19.60;65.80;;;;;;4971996;28;19917;-88
2023/07/13 08:36:10;;;;;;;;;;;19.60;65.80;;;;;;5006250;28;19983;-88
2023/07/13 08:38:35;;;;;;;;;;;19.60;66.00;;;;;;5039041;28;19910;-88
2023/07/13 08:41:09;;;;;;;;;;;19.70;66.80;;;;;;4972023;28;19917;-88
2023/07/13 08:43:35;;;;;;;;;;;19.90;65.60;;;;;;4971326;28;20078;-89
2023/07/13 08:46:07;;;;;;;;;;;20.10;65.40;;;;;;4969526;28;19910;-88
2023/07/13 08:48:35;;;;;;;;;;;20.30;65.50;;;;;;4971623;28;19913;-88
2023/07/13 08:51:19;;;;;;;;;;;20.30;65.10;;;;;;4970432;28;20048;-88
2023/07/13 08:54:05;;;;;;;;;;;20.30;64.40;;;;;;4971216;28;19917;-89
2023/07/13 08:56:31;;;;;;;;;;;20.30;65.00;;;;;;4966123;28;19914;-88
2023/07/13 08:59:06;;;;;;;;;;;20.20;64.50;;;;;;4963397;28;20104;-88
2023/07/13 09:01:42;;;;;;;;;;;20.30;64.20;;;;;;4972049;28;19917;-88
2023/07/13 09:04:11;;;;;;;;;;;20.30;64.50;;;;;;4971704;28;19914;-88
2023/07/13 09:06:45;;;;;;;;;;;20.30;64.70;;;;;;4972146;28;19917;-88
2023/07/13 09:09:29;;;;;;;;;;;20.40;64.50;;;;;;4971396;28;20370;-88
2023/07/13 09:11:55;;;;;;;;;;;20.50;64.90;;;;;;4973048;28;19914;-88
2023/07/13 09:14:39;;;;;;;;;;;20.60;63.60;;;;;;4972410;28;19921;-89
2023/07/13 09:17:10;;;;;;;;;;;20.50;63.80;;;;;;4971466;28;20059;-88
2023/07/13 09:19:35;;;;;;;;;;;20.30;64.50;;;;;;4971893;28;20009;-88
2023/07/13 09:22:02;;;;;;;;;;;20.20;64.40;;;;;;4970936;28;19910;-89
2023/07/13 09:24:33;;;;;;;;;;;20.40;64.60;;;;;;5057818;28;19997;-89
2023/07/13 09:26:58;;;;;;;;;;;20.50;64.20;;;;;;4987347;28;19959;-89
2023/07/13 09:29:33;;;;;;;;;;;20.90;64.10;;;;;;4971084;28;19910;-88
2023/07/13 09:32:01;;;;;;;;;;;20.80;63.30;;;;;;4969875;28;19910;-89
2023/07/13 09:34:30;;;;;;;;;;;21.00;64.10;;;;;;4973189;28;20418;-89
2023/07/13 09:36:56;;;;;;;;;;;21.10;62.60;;;;;;4974467;28;19910;-88
2023/07/13 09:39:24;;;;;;;;;;;21.20;62.80;;;;;;4975445;28;19989;-88
2023/07/13 09:41:59;;;;;;;;;;;21.20;62.30;;;;;;4977873;28;19914;-89
2023/07/13 09:44:33;;;;;;;;;;;21.20;61.90;;;;;;4993733;28;19955;-89
2023/07/13 09:46:59;;;;;;;;;;;21.20;61.30;;;;;;4991599;28;19917;-89
2023/07/13 09:49:25;;;;;;;;;;;21.10;61.10;;;;;;4975820;28;19910;-88
2023/07/13 09:51:57;;;;;;;;;;;21.30;61.20;;;;;;4971722;28;20005;-89
2023/07/13 09:54:24;;;;;;;;;;;21.40;61.30;;;;;;4975839;28;19910;-88
2023/07/13 09:56:54;;;;;;;;;;;21.50;60.30;;;;;;4959165;28;19942;-89
2023/07/13 09:59:21;;;;;;;;;;;21.40;60.40;;;;;;4974037;28;19910;-88
2023/07/13 10:01:48;;;;;;;;;;;21.30;61.60;;;;;;4974724;28;19917;-88
2023/07/13 10:04:16;;;;;;;;;;;21.30;61.20;;;;;;4966275;28;19910;-89
2023/07/13 10:06:42;;;;;;;;;;;21.40;61.20;;;;;;4974381;28;19917;-88
2023/07/13 10:09:08;;;;;;;;;;;21.50;60.60;;;;;;4974608;28;20268;-89
2023/07/13 10:11:35;;;;;;;;;;;21.50;60.60;;;;;;4985286;28;19910;-88
2023/07/13 10:14:08;;;;;;;;;;;21.50;60.10;;;;;;4972552;28;19961;-88
2023/07/13 10:16:34;;;;;;;;;;;21.50;60.40;;;;;;4985008;28;20290;-89
2023/07/13 10:19:15;;;;;;;;;;;21.40;60.20;;;;;;4974197;28;20020;-89
2023/07/13 10:21:59;;;;;;;;;;;21.50;60.90;;;;;;4992083;28;19947;-89
2023/07/13 10:24:26;;;;;;;;;;;21.40;60.80;;;;;;4959628;28;19917;-89
2023/07/13 10:27:00;;;;;;;;;;;21.50;61.10;;;;;;4971033;28;19910;-87
2023/07/13 10:29:27;;;;;;;;;;;21.60;60.20;;;;;;4974490;28;19910;-88
2023/07/13 10:31:53;;;;;;;;;;;21.60;59.40;;;;;;4983396;28;19910;-89
2023/07/13 10:34:18;;;;;;;;;;;21.50;59.60;;;;;;4974114;28;19916;-89
2023/07/13 10:36:45;;;;;;;;;;;21.50;60.00;;;;;;4974006;28;20000;-89
2023/07/13 10:39:16;;;;;;;;;;;21.70;60.80;;;;;;4974029;28;19917;-88
2023/07/13 10:41:42;;;;;;;;;;;22.10;60.40;;;;;;5023458;28;19941;-89
2023/07/13 10:44:15;;;;;;;;;;;22.40;59.60;;;;;;5074126;28;19914;-88
2023/07/13 10:46:41;;;;;;;;;;;22.50;56.20;;;;;;4991140;28;19910;-90
2023/07/13 10:49:07;;;;;;;;;;;22.30;56.90;;;;;;4991200;28;19910;-89
2023/07/13 10:51:33;;;;;;;;;;;22.30;56.80;;;;;;4974147;28;20405;-89
2023/07/13 10:54:18;;;;;;;;;;;22.20;58.30;;;;;;4973697;28;19910;-89
2023/07/13 10:56:45;;;;;;;;;;;22.00;59.20;;;;;;4971212;28;20008;-89
2023/07/13 10:59:16;;;;;;;;;;;22.00;59.40;;;;;;4973495;28;20390;-88
2023/07/13 11:02:05;;;;;;;;;;;22.00;59.20;;;;;;4987488;28;19925;-90
2023/07/13 11:04:45;;;;;;;;;;;22.10;59.20;;;;;;4970681;28;19926;-88
2023/07/13 11:07:32;;;;;;;;;;;22.20;58.40;;;;;;4958597;28;19914;-89
2023/07/13 11:09:58;;;;;;;;;;;22.30;58.70;;;;;;4974082;28;19914;-88
2023/07/13 11:12:25;;;;;;;;;;;22.50;58.10;;;;;;4973581;28;19914;-90
2023/07/13 11:14:53;;;;;;;;;;;22.50;58.30;;;;;;4973577;28;19960;-90
2023/07/13 11:17:36;;;;;;;;;;;22.50;58.40;;;;;;4973398;28;19933;-88
2023/07/13 11:20:10;;;;;;;;;;;22.50;58.30;;;;;;4991309;28;19915;-89
2023/07/13 11:23:06;;;;;;;;;;;22.50;58.20;;;;;;4973132;28;19939;-89
2023/07/13 11:25:34;;;;;;;;;;;22.50;57.80;;;;;;4973106;28;19916;-89
2023/07/13 11:28:21;;;;;;;;;;;22.70;57.20;;;;;;5029914;28;19918;-88
2023/07/13 11:31:00;;;;;;;;;;;22.80;56.30;;;;;;4973089;28;19913;-87
2023/07/13 11:33:37;;;;;;;;;;;22.60;55.60;;;;;;4970071;28;19918;-88
2023/07/13 11:36:04;;;;;;;;;;;22.50;56.30;;;;;;4971473;28;19921;-88
2023/07/13 11:38:33;;;;;;;;;;;22.60;55.90;;;;;;4973271;28;19970;-88
2023/07/13 11:41:02;;;;;;;;;;;22.60;56.10;;;;;;4979828;28;19981;-90
2023/07/13 11:43:28;;;;;;;;;;;22.50;56.80;;;;;;4973337;28;19931;-88
2023/07/13 11:45:54;;;;;;;;;;;22.60;56.20;;;;;;4973370;28;19910;-88
2023/07/13 11:48:21;;;;;;;;;;;22.80;56.20;;;;;;4973731;28;20447;-89
2023/07/13 11:50:51;;;;;;;;;;;22.60;55.50;;;;;;4973985;28;19929;-89
2023/07/13 11:53:17;;;;;;;;;;;22.80;56.10;;;;;;4957711;28;19914;-88
2023/07/13 11:55:42;;;;;;;;;;;23.00;54.60;;;;;;4974265;28;19914;-89
2023/07/13 11:58:09;;;;;;;;;;;23.00;52.40;;;;;;4990529;28;19965;-88
2023/07/13 12:00:35;;;;;;;;;;;23.00;52.70;;;;;;4973903;28;19922;-88
2023/07/13 12:03:02;;;;;;;;;;;23.00;53.50;;;;;;4983040;28;19920;-90
2023/07/13 12:05:29;;;;;;;;;;;23.00;53.80;;;;;;4975814;28;19975;-89
2023/07/13 12:07:55;;;;;;;;;;;23.10;53.40;;;;;;4972964;28;19910;-89
2023/07/13 12:10:32;;;;;;;;;;;23.00;53.20;;;;;;4973173;28;19910;-90
2023/07/13 12:13:00;;;;;;;;;;;22.90;54.20;;;;;;4973113;28;19993;-88
2023/07/13 12:15:39;;;;;;;;;;;22.80;53.80;;;;;;4968299;28;19918;-88
2023/07/13 12:18:34;;;;;;;;;;;23.00;54.60;;;;;;4970418;28;20608;-89
2023/07/13 12:21:00;;;;;;;;;;;23.20;52.50;;;;;;4964610;28;20433;-89
2023/07/13 12:23:32;;;;;;;;;;;23.40;51.60;;;;;;4990147;28;19952;-89
2023/07/13 12:25:59;;;;;;;;;;;23.30;51.40;;;;;;4990804;28;19917;-89
2023/07/13 12:28:32;;;;;;;;;;;23.50;51.80;;;;;;4983228;28;19910;-88
2023/07/13 12:30:59;;;;;;;;;;;23.50;52.20;;;;;;4970172;28;19969;-89
2023/07/13 12:33:28;;;;;;;;;;;23.50;49.90;;;;;;4972589;28;19917;-89
2023/07/13 12:35:53;;;;;;;;;;;23.60;51.00;;;;;;4967551;28;20312;-89
2023/07/13 12:38:22;;;;;;;;;;;23.50;49.90;;;;;;5041244;28;19910;-89
2023/07/13 12:40:49;;;;;;;;;;;23.40;50.80;;;;;;4982459;28;19915;-88
2023/07/13 12:43:15;;;;;;;;;;;23.30;50.30;;;;;;4988874;28;19918;-89
2023/07/13 12:46:00;;;;;;;;;;;23.40;51.30;;;;;;4972504;28;19910;-88
2023/07/13 12:48:26;;;;;;;;;;;23.50;51.20;;;;;;4983241;28;19913;-88
2023/07/13 12:50:53;;;;;;;;;;;23.50;51.80;;;;;;4972418;28;19909;-89
2023/07/13 12:53:19;;;;;;;;;;;23.60;52.40;;;;;;4972229;28;19917;-89
2023/07/13 12:56:02;;;;;;;;;;;23.80;50.30;;;;;;4972380;28;19921;-89
2023/07/13 12:58:43;;;;;;;;;;;24.00;48.90;;;;;;4965833;28;19921;-89
2023/07/13 13:01:10;;;;;;;;;;;24.00;49.00;;;;;;4972580;28;19910;-88
2023/07/13 13:03:37;;;;;;;;;;;24.00;49.20;;;;;;5001316;28;19918;-89
2023/07/13 13:06:04;;;;;;;;;;;24.10;48.60;;;;;;4989911;28;19963;-89
2023/07/13 13:08:31;;;;;;;;;;;24.20;48.30;;;;;;4961697;28;19910;-89
2023/07/13 13:10:56;;;;;;;;;;;24.30;48.90;;;;;;4983149;28;19910;-88
2023/07/13 13:13:21;;;;;;;;;;;24.30;47.10;;;;;;4971980;28;20267;-89
2023/07/13 13:15:47;;;;;;;;;;;24.40;47.40;;;;;;4975181;28;20334;-89
2023/07/13 13:18:17;;;;;;;;;;;24.30;48.00;;;;;;4976197;28;19988;-89
2023/07/13 13:20:43;;;;;;;;;;;24.30;48.20;;;;;;4975397;28;20026;-88
2023/07/13 13:23:17;;;;;;;;;;;24.50;47.70;;;;;;4974733;28;19945;-89
2023/07/13 13:25:43;;;;;;;;;;;24.50;47.00;;;;;;4975257;28;19961;-88
2023/07/13 13:28:14;;;;;;;;;;;24.60;47.00;;;;;;4990395;28;20347;-89
2023/07/13 13:30:40;;;;;;;;;;;24.60;46.90;;;;;;4979977;28;20005;-89
2023/07/13 13:33:08;;;;;;;;;;;24.30;46.40;;;;;;4974124;28;19910;-89
2023/07/13 13:35:34;;;;;;;;;;;24.00;47.80;;;;;;4992386;28;20555;-88
2023/07/13 13:37:59;;;;;;;;;;;23.70;48.50;;;;;;4972561;28;19910;-88
2023/07/13 13:40:26;;;;;;;;;;;23.60;49.70;;;;;;4992095;28;19909;-88
2023/07/13 13:42:53;;;;;;;;;;;23.00;53.30;;;;;;4971196;28;19918;-87
2023/07/13 13:45:21;;;;;;;;;;;22.30;55.30;;;;;;4967409;28;19917;-86
2023/07/13 13:47:47;;;;;;;;;;;21.60;57.20;;;;;;4972062;28;20012;-87
2023/07/13 13:50:16;;;;;;;;;;;21.10;59.90;;;;;;4991544;28;20460;-88
2023/07/13 13:52:42;;;;;;;;;;;20.30;62.40;;;;;;4987283;28;20323;-87
2023/07/13 13:55:11;;;;;;;;;;;20.10;63.80;;;;;;4986476;28;19940;-88
2023/07/13 13:57:37;;;;;;;;;;;19.80;67.20;;;;;;4972281;28;20402;-91
2023/07/13 14:00:02;;;;;;;;;;;19.60;69.20;;;;;;4974508;28;19913;-88
2023/07/13 14:02:31;;;;;;;;;;;19.30;72.20;;;;;;4975575;28;20390;-90
2023/07/13 14:04:58;;;;;;;;;;;19.00;75.50;;;;;;4984037;28;20452;-88
2023/07/13 14:07:23;;;;;;;;;;;18.80;75.00;;;;;;4975237;28;19910;-89
2023/07/13 14:09:49;;;;;;;;;;;18.60;76.70;;;;;;4992689;28;19920;-89
2023/07/13 14:12:14;;;;;;;;;;;18.80;75.80;;;;;;4974914;28;20128;-88
2023/07/13 14:14:40;;;;;;;;;;;18.70;76.20;;;;;;4974048;28;19910;-89
2023/07/13 14:17:17;;;;;;;;;;;18.80;75.60;;;;;;4974922;28;19913;-89
2023/07/13 14:19:42;;;;;;;;;;;18.70;77.30;;;;;;4970462;28;20343;-89